Time;durP1;ratioP1;P1;durP2;ratioP2;P2;SDS_P1;SDS_P2;PMS_P1;PMS_P2;Temp;Humidity;BMP_temperature;BMP_pressure;BME280_temperature;BME280_humidity;BME280_pressure;Samples;Min_cycle;Max_cycle;Signal;HPM_P1;HPM_P2
2021/10/17 00:09:34;;;;;;;19.80;14.10;;;;;;;6.04;75.59;99962.27;477859;1190;141802;-66
2021/10/17 00:19:40;;;;;;;18.50;12.90;;;;;;;6.05;75.76;99968.87;477847;1190;142643;-66
2021/10/17 00:29:45;;;;;;;19.30;13.20;;;;;;;6.06;75.81;99967.25;476755;1191;141737;-67
2021/10/17 00:39:51;;;;;;;21.40;12.90;;;;;;;6.08;75.94;99963.72;477829;1190;141577;-67
2021/10/17 00:49:57;;;;;;;20.70;13.20;;;;;;;6.05;76.16;99959.29;477650;1190;142258;-66
2021/10/17 01:00:03;;;;;;;18.00;13.20;;;;;;;6.03;76.15;99959.36;477073;1190;141854;-67
2021/10/17 01:10:11;;;;;;;19.80;14.00;;;;;;;6.06;76.37;99953.55;477739;1190;143707;-67
2021/10/17 01:20:17;;;;;;;20.80;16.00;;;;;;;6.06;76.39;99950.23;469253;1190;142231;-66
2021/10/17 01:30:22;;;;;;;24.50;13.40;;;;;;;6.06;76.50;99941.55;468842;1190;210768;-65
2021/10/17 01:40:28;;;;;;;24.30;14.90;;;;;;;6.08;76.52;99929.45;474637;1191;141150;-66
2021/10/17 01:50:34;;;;;;;22.40;13.80;;;;;;;6.04;76.70;99914.14;477112;1190;142649;-67
2021/10/17 02:00:40;;;;;;;21.60;15.10;;;;;;;6.02;76.75;99912.50;477898;1190;141022;-67
2021/10/17 02:10:46;;;;;;;25.10;16.00;;;;;;;6.06;76.83;99910.77;477687;1190;142802;-67
2021/10/17 02:20:52;;;;;;;21.90;13.50;;;;;;;6.07;76.95;99913.00;477099;1190;144739;-67
2021/10/17 02:30:58;;;;;;;17.90;13.20;;;;;;;6.07;76.98;99908.50;477873;1190;141715;-67
2021/10/17 02:41:04;;;;;;;18.70;12.20;;;;;;;6.03;77.15;99900.45;477873;1190;140780;-66
2021/10/17 02:51:12;;;;;;;21.70;12.70;;;;;;;6.03;77.15;99894.91;477069;1190;141437;-66
2021/10/17 03:01:16;;;;;;;;;;;;;;;5.99;77.27;99888.42;477844;1190;141900;-67
2021/10/17 03:11:22;;;;;;;17.90;11.00;;;;;;;5.95;77.50;99887.88;477401;1190;126987;-67
2021/10/17 03:21:29;;;;;;;19.10;12.40;;;;;;;5.95;77.68;99892.42;477756;1190;141309;-67
2021/10/17 03:31:38;;;;;;;27.20;16.50;;;;;;;5.93;77.75;99892.85;475761;1190;141346;-67
2021/10/17 03:41:43;;;;;;;22.10;16.50;;;;;;;5.92;77.77;99899.30;477084;1190;141961;-67
2021/10/17 03:51:49;;;;;;;18.80;13.90;;;;;;;5.95;77.93;99897.45;477932;1190;142094;-66
2021/10/17 04:01:55;;;;;;;17.70;12.30;;;;;;;5.92;77.99;99905.38;477881;1190;142557;-67
2021/10/17 04:12:01;;;;;;;21.80;15.20;;;;;;;5.92;78.11;99901.02;477087;1190;198403;-67
2021/10/17 04:22:07;;;;;;;21.40;13.60;;;;;;;5.94;78.19;99897.67;469154;1190;141834;-65
2021/10/17 04:32:13;;;;;;;21.40;15.20;;;;;;;5.93;78.30;99895.95;474512;1190;141440;-65
2021/10/17 04:42:19;;;;;;;26.40;13.80;;;;;;;5.92;78.40;99898.60;467965;1190;140591;-67
2021/10/17 04:52:24;;;;;;;23.80;16.40;;;;;;;5.89;78.44;99900.80;477883;1190;143720;-66
2021/10/17 05:02:30;;;;;;;22.90;12.40;;;;;;;5.89;78.65;99900.46;476679;1190;142126;-66
2021/10/17 05:12:36;;;;;;;18.20;12.40;;;;;;;5.89;78.69;99891.41;477911;1190;141465;-67
2021/10/17 05:22:42;;;;;;;25.20;15.30;;;;;;;5.92;78.80;99886.95;470855;1181;140393;-66
2021/10/17 05:32:48;;;;;;;20.30;14.00;;;;;;;5.95;78.81;99891.20;476964;1190;140947;-67
2021/10/17 05:42:53;;;;;;;20.10;14.10;;;;;;;6.03;78.76;99899.39;477853;1190;141721;-66
2021/10/17 05:52:59;;;;;;;17.60;12.70;;;;;;;6.14;78.72;99902.10;477765;1190;142061;-66
2021/10/17 06:03:07;;;;;;;18.20;12.20;;;;;;;6.22;78.61;99907.17;477041;1190;141376;-66
2021/10/17 06:13:13;;;;;;;17.60;12.70;;;;;;;6.33;78.55;99902.03;477744;1190;140643;-67
2021/10/17 06:23:19;;;;;;;22.40;15.10;;;;;;;6.49;78.36;99909.87;477125;1190;140561;-67
2021/10/17 06:33:25;;;;;;;23.30;16.90;;;;;;;6.65;78.15;99910.09;477888;1190;141612;-66
2021/10/17 06:43:31;;;;;;;30.80;22.50;;;;;;;6.78;78.00;99915.82;475359;1190;142206;-66
2021/10/17 06:53:36;;;;;;;28.70;22.90;;;;;;;6.95;77.64;99911.60;461039;1191;141628;-68
2021/10/17 07:03:42;;;;;;;23.60;17.60;;;;;;;7.06;77.42;99917.58;463092;1190;141792;-67
2021/10/17 07:13:48;;;;;;;19.30;15.20;;;;;;;7.14;77.24;99919.66;461477;1183;140958;-67
2021/10/17 07:23:55;;;;;;;20.90;16.40;;;;;;;7.25;77.21;99923.32;466555;1190;141803;-67
2021/10/17 07:34:00;;;;;;;20.70;14.50;;;;;;;7.30;76.98;99928.35;477919;1190;142914;-66
2021/10/17 07:44:07;;;;;;;17.40;11.90;;;;;;;7.46;76.69;99937.91;472452;1190;141569;-65
2021/10/17 07:54:13;;;;;;;17.40;11.30;;;;;;;7.63;76.29;99938.73;477065;1190;142979;-67
2021/10/17 08:04:18;;;;;;;16.90;11.60;;;;;;;7.88;75.93;99943.33;472993;1190;141915;-66
2021/10/17 08:14:24;;;;;;;20.10;14.50;;;;;;;8.03;75.11;99948.17;466633;1190;141699;-66
2021/10/17 08:24:30;;;;;;;18.90;14.40;;;;;;;8.21;74.57;99949.06;477515;1190;142802;-67
2021/10/17 08:34:36;;;;;;;14.90;11.00;;;;;;;8.26;74.18;99949.21;477545;1190;142166;-68
2021/10/17 08:44:43;;;;;;;15.10;10.40;;;;;;;8.50;73.87;99949.94;476408;1191;140875;-68
2021/10/17 08:54:50;;;;;;;13.00;10.10;;;;;;;8.76;73.44;99945.70;477752;1190;142037;-69
2021/10/17 09:05:06;;;;;;;19.20;11.50;;;;;;;9.06;72.90;99951.01;461694;1189;20002704;-71
2021/10/17 09:15:24;;;;;;;14.20;9.20;;;;;;;9.33;71.99;99948.89;476382;1191;141443;-70
2021/10/17 09:25:35;;;;;;;15.40;9.90;;;;;;;9.55;71.04;99954.88;466463;1190;141674;-62
2021/10/17 09:35:41;;;;;;;11.90;8.50;;;;;;;9.80;70.16;99949.89;476394;1190;141419;-64
2021/10/17 09:45:46;;;;;;;9.30;7.80;;;;;;;10.02;68.80;99944.13;470632;1190;142658;-64
2021/10/17 09:55:55;;;;;;;15.20;9.30;;;;;;;10.21;67.53;99941.85;477509;1189;141745;-64
2021/10/17 10:06:02;;;;;;;7.10;5.90;;;;;;;10.29;65.93;99942.44;476423;1190;141809;-64
2021/10/17 10:16:09;;;;;;;14.40;9.40;;;;;;;10.40;64.86;99935.86;477432;1190;141787;-64
2021/10/17 10:26:17;;;;;;;10.70;6.20;;;;;;;10.81;64.10;99928.08;477172;1190;141714;-63
2021/10/17 10:36:40;;;;;;;20.10;12.40;;;;;;;11.19;63.06;99918.67;477718;1190;153870;-63
2021/10/17 10:46:46;;;;;;;15.40;8.90;;;;;;;11.41;61.65;99907.02;477681;1190;141088;-63
2021/10/17 10:56:53;;;;;;;18.70;10.50;;;;;;;11.52;60.77;99898.77;468784;1190;10001460;-62
2021/10/17 11:07:18;;;;;;;39.00;24.90;;;;;;;11.73;60.16;99888.51;477805;1190;142011;-63
2021/10/17 11:17:25;;;;;;;9.70;7.50;;;;;;;11.75;59.00;99885.02;476955;1190;141121;-63
2021/10/17 11:27:31;;;;;;;12.70;7.10;;;;;;;11.69;58.22;99885.58;470280;1190;140247;-62
2021/10/17 11:37:36;;;;;;;9.50;7.60;;;;;;;11.57;58.38;99884.80;474820;1190;142231;-63
2021/10/17 11:47:46;;;;;;;22.70;10.50;;;;;;;11.59;58.17;99883.23;476874;1190;141390;-63
2021/10/17 11:57:53;;;;;;;21.00;10.00;;;;;;;11.50;57.84;99867.52;477293;1190;140780;-63
2021/10/17 12:08:00;;;;;;;11.20;6.50;;;;;;;11.43;57.33;99861.10;477639;1183;141861;-63
2021/10/17 12:18:06;;;;;;;6.60;5.00;;;;;;;11.13;56.93;99861.73;472291;1189;143012;-64
2021/10/17 12:28:18;;;;;;;8.70;4.70;;;;;;;10.86;57.26;99857.39;477792;1190;141706;-63
2021/10/17 12:38:35;;;;;;;8.40;4.90;;;;;;;10.69;57.46;99854.38;476938;1190;140926;-62
2021/10/17 12:48:43;;;;;;;11.10;5.10;;;;;;;10.42;57.77;99844.60;477483;1190;141327;-63
2021/10/17 12:59:04;;;;;;;6.50;5.50;;;;;;;10.30;58.27;99838.31;477495;1190;142382;-63
2021/10/17 13:09:10;;;;;;;13.90;6.60;;;;;;;10.20;58.69;99833.41;472158;1190;142165;-63
2021/10/17 13:19:20;;;;;;;9.10;4.80;;;;;;;10.07;59.13;99837.00;477413;1192;141257;-63
2021/10/17 13:29:27;;;;;;;7.50;5.60;;;;;;;10.07;59.64;99830.33;476800;1190;141115;-63
2021/10/17 13:39:33;;;;;;;11.80;6.00;;;;;;;10.10;59.96;99828.60;474747;1190;140856;-64
2021/10/17 13:49:39;;;;;;;9.40;6.20;;;;;;;10.00;60.33;99826.56;474984;1190;140498;-63
2021/10/17 13:59:45;;;;;;;12.40;9.50;;;;;;;9.87;60.66;99818.17;476958;1190;141287;-61
2021/10/17 14:09:50;;;;;;;13.40;7.90;;;;;;;9.72;61.30;99807.14;477677;1190;141081;-60
2021/10/17 14:19:56;;;;;;;15.50;8.40;;;;;;;9.64;61.62;99809.89;477110;1190;140501;-61
2021/10/17 14:30:02;;;;;;;11.10;8.00;;;;;;;9.48;61.80;99808.46;471172;1190;141638;-61
2021/10/17 14:40:10;;;;;;;11.50;7.30;;;;;;;9.34;62.18;99813.07;477618;1190;142035;-62
2021/10/17 14:50:16;;;;;;;11.30;7.60;;;;;;;9.27;62.31;99811.04;477577;1190;142254;-64
2021/10/17 15:00:23;;;;;;;15.80;9.30;;;;;;;9.23;62.76;99810.73;477564;1190;142063;-64
2021/10/17 15:10:29;;;;;;;17.10;12.60;;;;;;;9.18;63.13;99812.41;470998;1190;142316;-65
2021/10/17 15:20:35;;;;;;;15.30;11.70;;;;;;;9.09;63.64;99817.07;476728;1190;141798;-63
2021/10/17 15:30:41;;;;;;;21.50;12.30;;;;;;;8.96;64.23;99816.52;468768;1190;146184;-62
2021/10/17 15:40:47;;;;;;;18.20;12.70;;;;;;;8.77;64.70;99818.91;460403;1190;141389;-66
2021/10/17 15:50:52;;;;;;;16.20;12.10;;;;;;;8.60;65.20;99821.05;476076;1183;184194;-60
2021/10/17 16:01:00;;;;;;;24.60;15.50;;;;;;;8.49;65.58;99824.36;477662;1190;141002;-60
2021/10/17 16:11:06;;;;;;;31.00;19.20;;;;;;;8.49;66.02;99830.12;477584;1190;142757;-63
2021/10/17 16:21:13;;;;;;;27.00;18.20;;;;;;;8.40;66.17;99831.42;476897;1190;143908;-62
2021/10/17 16:31:24;;;;;;;26.70;15.10;;;;;;;8.33;66.41;99841.08;477665;1190;142550;-67
2021/10/17 16:41:30;;;;;;;12.90;9.70;;;;;;;8.23;66.34;99849.04;477286;1190;141450;-66
2021/10/17 16:51:36;;;;;;;23.00;11.80;;;;;;;8.21;66.18;99856.29;473314;1176;141015;-70
2021/10/17 17:01:43;;;;;;;19.80;11.60;;;;;;;8.21;66.25;99856.13;475036;1190;142624;-69
2021/10/17 17:12:01;;;;;;;24.80;13.30;;;;;;;8.18;66.30;99849.45;476886;1190;142080;-65
2021/10/17 17:22:07;;;;;;;21.30;11.80;;;;;;;8.16;66.50;99846.64;477819;1190;141404;-64
2021/10/17 17:32:13;;;;;;;38.90;18.50;;;;;;;8.18;66.74;99843.02;477706;1190;141959;-63
2021/10/17 17:42:19;;;;;;;48.70;24.50;;;;;;;8.21;66.92;99836.94;477747;1189;142196;-60
2021/10/17 17:52:25;;;;;;;38.60;22.10;;;;;;;8.20;66.97;99834.56;477621;1190;142831;-61
2021/10/17 18:02:32;;;;;;;33.70;19.30;;;;;;;8.09;67.21;99834.92;476805;1190;141708;-60
2021/10/17 18:12:38;;;;;;;35.60;22.50;;;;;;;8.01;67.45;99834.96;473475;1190;145814;-59
2021/10/17 18:22:45;;;;;;;37.70;21.00;;;;;;;7.89;67.52;99837.45;474961;1190;142325;-59
2021/10/17 18:32:51;;;;;;;39.90;24.40;;;;;;;7.79;67.90;99833.23;476766;1190;141268;-60
2021/10/17 18:42:57;;;;;;;35.60;23.60;;;;;;;7.69;67.98;99832.83;477703;1190;141011;-59
2021/10/17 18:53:03;;;;;;;29.50;21.10;;;;;;;7.53;68.44;99836.71;477783;1189;142578;-63
2021/10/17 19:03:09;;;;;;;29.30;20.30;;;;;;;7.46;68.70;99836.37;476898;1189;141623;-62
2021/10/17 19:13:15;;;;;;;23.70;18.00;;;;;;;7.33;68.94;99840.28;477727;1190;143570;-64
2021/10/17 19:23:22;;;;;;;30.90;18.80;;;;;;;7.29;69.13;99845.50;476853;1189;141388;-59
2021/10/17 19:33:28;;;;;;;34.50;27.20;;;;;;;7.20;69.28;99855.33;477727;1189;142108;-59
2021/10/17 19:43:34;;;;;;;28.90;23.20;;;;;;;7.15;69.68;99866.34;477622;1190;141221;-61
2021/10/17 19:53:40;;;;;;;28.50;21.20;;;;;;;7.13;69.86;99875.81;476850;1190;200627;-61
2021/10/17 20:03:46;;;;;;;22.40;18.10;;;;;;;7.07;69.84;99887.05;466752;1190;141356;-61
2021/10/17 20:13:52;;;;;;;22.20;17.30;;;;;;;6.93;69.91;99892.73;460430;1190;143109;-63
2021/10/17 20:23:58;;;;;;;21.80;16.30;;;;;;;6.78;70.20;99891.10;471054;1189;141282;-67
2021/10/17 20:34:09;;;;;;;22.50;15.20;;;;;;;6.64;70.53;99889.11;476992;1189;142546;-65
2021/10/17 20:44:15;;;;;;;22.60;15.90;;;;;;;6.57;70.63;99889.89;475934;1190;141142;-66
2021/10/17 20:54:23;;;;;;;18.50;14.00;;;;;;;6.65;70.71;99892.16;477946;1190;141184;-64
2021/10/17 21:04:29;;;;;;;19.00;14.60;;;;;;;6.74;70.80;99891.96;469735;1183;141977;-64
2021/10/17 21:14:36;;;;;;;17.60;12.90;;;;;;;6.76;70.75;99892.95;459238;1185;141434;-64
2021/10/17 21:24:41;;;;;;;18.60;12.90;;;;;;;6.74;70.94;99897.53;468169;1190;145570;-65
2021/10/17 21:34:48;;;;;;;16.20;13.20;;;;;;;6.84;71.09;99897.45;470526;1190;141394;-65
2021/10/17 21:44:54;;;;;;;18.10;12.10;;;;;;;6.89;70.87;99892.38;468899;1190;141702;-65
2021/10/17 21:55:00;;;;;;;18.70;12.30;;;;;;;6.87;70.77;99894.02;470023;1190;141678;-64
2021/10/17 22:05:07;;;;;;;16.70;10.50;;;;;;;6.86;70.80;99899.99;465587;1190;140462;-65
2021/10/17 22:15:13;;;;;;;10.60;9.40;;;;;;;6.89;70.93;99888.56;474625;1190;192511;-65
2021/10/17 22:25:19;;;;;;;11.70;9.60;;;;;;;6.96;70.79;99886.14;473744;1190;141303;-61
2021/10/17 22:35:25;;;;;;;14.90;9.40;;;;;;;7.02;70.69;99889.02;465248;1190;140721;-65
2021/10/17 22:45:34;;;;;;;13.40;10.50;;;;;;;7.00;70.72;99895.55;473733;1190;141531;-63
2021/10/17 22:55:41;;;;;;;11.60;9.90;;;;;;;7.00;70.69;99900.41;465880;1190;141530;-62
2021/10/17 23:05:47;;;;;;;16.30;9.70;;;;;;;6.99;70.81;99906.55;476276;1190;142270;-63
2021/10/17 23:15:53;;;;;;;13.60;11.10;;;;;;;7.03;70.99;99911.77;477494;1191;141633;-62
2021/10/17 23:25:58;;;;;;;14.70;11.10;;;;;;;7.05;71.10;99921.11;475418;1190;140880;-60
2021/10/17 23:36:05;;;;;;;14.00;9.60;;;;;;;7.05;71.28;99925.62;465713;1190;141425;-62
2021/10/17 23:46:11;;;;;;;16.00;11.90;;;;;;;6.96;71.59;99932.47;461592;1192;141348;-63
2021/10/17 23:56:18;;;;;;;15.90;9.20;;;;;;;6.90;71.98;99928.54;471116;1190;141995;-63
